Time;durP1;ratioP1;P1;durP2;ratioP2;P2;SDS_P1;SDS_P2;PMS_P1;PMS_P2;Temp;Humidity;BMP_temperature;BMP_pressure;BME280_temperature;BME280_humidity;BME280_pressure;Samples;Min_cycle;Max_cycle;Signal;HPM_P1;HPM_P2
2021/11/25 00:00:29;;;;;;;8.13;5.22;;;6.70;99.90;;;;;;5031963;28;20116;-51
2021/11/25 00:02:54;;;;;;;7.85;5.30;;;6.70;99.90;;;;;;5031055;28;20109;-48
2021/11/25 00:05:20;;;;;;;8.35;5.47;;;6.70;99.90;;;;;;5045764;28;20032;-48
2021/11/25 00:07:46;;;;;;;9.07;4.95;;;6.70;99.90;;;;;;5051855;28;20063;-46
2021/11/25 00:10:12;;;;;;;9.50;5.60;;;6.70;99.90;;;;;;5051640;28;20455;-51
2021/11/25 00:12:37;;;;;;;9.68;5.50;;;6.70;99.90;;;;;;5051787;28;20061;-52
2021/11/25 00:15:08;;;;;;;10.60;5.88;;;6.70;99.90;;;;;;5050209;28;20025;-50
2021/11/25 00:17:33;;;;;;;10.38;6.60;;;6.70;99.90;;;;;;5051394;28;20025;-50
2021/11/25 00:19:59;;;;;;;10.40;5.75;;;6.70;99.90;;;;;;5052611;28;20032;-49
2021/11/25 00:22:25;;;;;;;8.52;5.57;;;6.70;99.90;;;;;;5052396;28;20024;-48
2021/11/25 00:24:50;;;;;;;11.80;5.88;;;6.60;99.90;;;;;;5052399;28;20037;-47
2021/11/25 00:27:16;;;;;;;9.90;5.72;;;6.60;99.90;;;;;;5052511;28;20032;-51
2021/11/25 00:29:41;;;;;;;14.27;6.60;;;6.60;99.90;;;;;;5052305;28;20055;-47
2021/11/25 00:32:07;;;;;;;11.45;5.88;;;6.60;99.90;;;;;;5051847;28;20053;-53
2021/11/25 00:34:33;;;;;;;10.27;5.63;;;6.60;99.90;;;;;;5051788;28;20030;-50
2021/11/25 00:36:58;;;;;;;8.23;5.60;;;6.60;99.90;;;;;;5052467;28;20380;-52
2021/11/25 00:39:24;;;;;;;14.18;6.93;;;6.60;99.90;;;;;;5052180;28;20029;-48
2021/11/25 00:41:50;;;;;;;9.10;4.80;;;6.60;99.90;;;;;;5052382;28;20119;-47
2021/11/25 00:44:16;;;;;;;11.43;6.15;;;6.60;99.90;;;;;;5052270;28;20476;-46
2021/11/25 00:46:42;;;;;;;11.70;5.90;;;6.60;99.90;;;;;;5052166;28;20032;-49
2021/11/25 00:49:08;;;;;;;8.88;4.97;;;6.60;99.90;;;;;;5051312;28;20025;-47
2021/11/25 00:51:34;;;;;;;10.32;4.78;;;6.60;99.90;;;;;;5050970;28;20063;-48
2021/11/25 00:54:00;;;;;;;8.35;4.43;;;6.60;99.90;;;;;;5052858;28;20029;-48
2021/11/25 00:56:25;;;;;;;8.88;4.80;;;6.60;99.90;;;;;;5056292;28;20033;-53
2021/11/25 00:58:51;;;;;;;9.13;4.85;;;6.60;99.90;;;;;;5056068;28;20550;-52
2021/11/25 01:01:16;;;;;;;8.43;4.32;;;6.60;99.90;;;;;;5056157;28;20021;-51
2021/11/25 01:03:42;;;;;;;8.88;4.13;;;6.60;99.90;;;;;;5054839;28;20161;-47
2021/11/25 01:06:08;;;;;;;9.23;4.30;;;6.60;99.90;;;;;;5056119;28;20025;-51
2021/11/25 01:08:34;;;;;;;10.18;4.68;;;6.60;99.90;;;;;;5055896;28;20040;-49
2021/11/25 01:10:59;;;;;;;7.40;4.43;;;6.60;99.90;;;;;;5056057;28;20476;-47
2021/11/25 01:13:25;;;;;;;8.50;4.38;;;6.60;99.90;;;;;;5055836;28;20029;-49
2021/11/25 01:15:51;;;;;;;5.38;3.47;;;6.50;99.90;;;;;;5055689;28;20013;-50
2021/11/25 01:18:18;;;;;;;8.60;4.72;;;6.50;99.90;;;;;;5054796;28;20029;-49
2021/11/25 01:20:46;;;;;;;8.32;3.88;;;6.50;99.90;;;;;;5055778;28;20469;-48
2021/11/25 01:23:18;;;;;;;9.40;3.80;;;6.50;99.90;;;;;;5055570;28;20032;-45
2021/11/25 01:25:44;;;;;;;5.72;3.78;;;6.50;99.90;;;;;;5055898;28;20487;-51
2021/11/25 01:28:12;;;;;;;6.07;3.60;;;6.50;99.90;;;;;;5055628;28;20037;-46
2021/11/25 01:30:42;;;;;;;6.60;3.78;;;6.50;99.90;;;;;;5055506;28;20059;-47
2021/11/25 01:33:09;;;;;;;6.55;3.70;;;6.50;99.90;;;;;;5054343;28;20036;-49
2021/11/25 01:35:36;;;;;;;3.88;3.30;;;6.50;99.90;;;;;;5055538;28;20025;-47
2021/11/25 01:38:02;;;;;;;5.32;3.85;;;6.50;99.90;;;;;;5055483;28;20395;-50
2021/11/25 01:40:27;;;;;;;5.32;4.10;;;6.50;99.90;;;;;;5055589;28;20326;-47
2021/11/25 01:42:53;;;;;;;5.88;3.95;;;6.50;99.90;;;;;;5055421;28;20059;-48
2021/11/25 01:45:23;;;;;;;6.88;4.15;;;6.40;99.90;;;;;;5055344;28;20379;-52
2021/11/25 01:47:48;;;;;;;6.75;4.28;;;6.40;99.90;;;;;;5054292;28;20464;-47
2021/11/25 01:50:15;;;;;;;6.97;4.30;;;6.40;99.90;;;;;;5055211;28;20033;-47
2021/11/25 01:52:41;;;;;;;8.00;3.72;;;6.40;99.90;;;;;;5055022;28;20033;-46
2021/11/25 01:55:07;;;;;;;6.55;4.50;;;6.40;99.90;;;;;;5055056;28;20414;-47
2021/11/25 01:57:33;;;;;;;6.28;4.50;;;6.40;99.90;;;;;;5055212;28;20550;-50
2021/11/25 01:59:59;;;;;;;9.48;4.18;;;6.30;99.90;;;;;;5055108;28;20053;-50
2021/11/25 02:02:24;;;;;;;5.75;4.05;;;6.30;99.90;;;;;;5054263;28;20059;-49
2021/11/25 02:04:50;;;;;;;7.90;4.60;;;6.40;99.90;;;;;;5054166;28;20037;-53
2021/11/25 02:07:17;;;;;;;8.43;4.22;;;6.30;99.90;;;;;;5055033;28;20020;-47
2021/11/25 02:09:43;;;;;;;7.45;4.25;;;6.30;99.90;;;;;;5054772;28;20029;-52
2021/11/25 02:12:09;;;;;;;6.00;3.90;;;6.30;99.90;;;;;;5054854;28;20478;-49
2021/11/25 02:14:34;;;;;;;5.60;4.40;;;6.30;99.90;;;;;;5054647;28;20476;-51
2021/11/25 02:17:00;;;;;;;6.53;4.18;;;6.30;99.90;;;;;;5054712;28;20025;-52
2021/11/25 02:19:27;;;;;;;10.93;4.85;;;6.40;99.90;;;;;;5053656;28;20043;-50
2021/11/25 02:21:52;;;;;;;7.30;4.38;;;6.40;99.90;;;;;;5054660;28;20032;-49
2021/11/25 02:24:19;;;;;;;8.98;5.20;;;6.40;99.90;;;;;;5054489;28;20025;-51
2021/11/25 02:26:44;;;;;;;7.63;4.63;;;6.40;99.90;;;;;;5054426;28;20021;-47
2021/11/25 02:29:10;;;;;;;8.43;4.30;;;6.40;99.90;;;;;;5054519;28;20449;-50
2021/11/25 02:31:36;;;;;;;6.10;3.95;;;6.40;99.90;;;;;;5054449;28;20512;-49
2021/11/25 02:34:01;;;;;;;7.22;4.50;;;6.40;99.90;;;;;;5053170;28;20103;-52
2021/11/25 02:36:27;;;;;;;8.55;4.65;;;6.40;99.90;;;;;;5054334;28;20020;-50
2021/11/25 02:38:53;;;;;;;7.00;4.80;;;6.30;99.90;;;;;;5054326;28;20506;-48
2021/11/25 02:41:18;;;;;;;6.70;4.75;;;6.30;99.90;;;;;;5054423;28;20036;-48
2021/11/25 02:43:44;;;;;;;8.45;5.70;;;6.30;99.90;;;;;;5054127;28;20041;-50
2021/11/25 02:46:15;;;;;;;8.73;6.28;;;6.30;99.90;;;;;;5054377;28;20025;-49
2021/11/25 02:48:43;;;;;;;9.35;6.22;;;6.30;99.90;;;;;;5052960;28;20037;-51
2021/11/25 02:51:12;;;;;;;9.52;6.45;;;6.30;99.90;;;;;;5054217;28;20036;-47
2021/11/25 02:53:38;;;;;;;10.35;7.25;;;6.20;99.90;;;;;;5053920;28;20117;-54
2021/11/25 02:56:07;;;;;;;12.02;7.30;;;6.20;99.90;;;;;;5054057;28;20064;-50
2021/11/25 02:58:33;;;;;;;10.32;7.90;;;6.20;99.90;;;;;;5053939;28;20013;-47
2021/11/25 03:01:27;;;;;;;10.95;7.07;;;6.20;99.90;;;;;;5053971;28;20025;-45
2021/11/25 03:03:54;;;;;;;10.75;8.25;;;6.20;99.90;;;;;;5051445;28;20064;-50
2021/11/25 03:06:20;;;;;;;11.32;7.97;;;6.10;99.90;;;;;;5053965;28;20140;-50
2021/11/25 03:08:46;;;;;;;10.93;8.00;;;6.10;99.90;;;;;;5053692;28;20104;-49
2021/11/25 03:11:15;;;;;;;12.70;9.13;;;6.00;99.90;;;;;;5053787;28;20025;-48
2021/11/25 03:13:44;;;;;;;11.25;7.97;;;6.00;99.90;;;;;;5053480;28;20036;-49
2021/11/25 03:16:12;;;;;;;12.23;8.65;;;6.00;99.90;;;;;;5053146;28;20025;-48
2021/11/25 03:18:38;;;;;;;10.70;8.07;;;6.00;99.90;;;;;;5052009;28;20025;-50
2021/11/25 03:21:04;;;;;;;12.80;8.10;;;6.00;99.90;;;;;;5053608;28;20445;-47
2021/11/25 03:23:32;;;;;;;12.43;8.32;;;5.90;99.90;;;;;;5053544;28;20104;-47
2021/11/25 03:25:59;;;;;;;11.15;7.88;;;5.90;99.90;;;;;;5053296;28;20025;-51
2021/11/25 03:28:26;;;;;;;13.38;8.80;;;5.90;99.90;;;;;;5053228;28;20029;-47
2021/11/25 03:30:55;;;;;;;13.07;8.45;;;5.90;99.90;;;;;;5053147;28;20473;-48
2021/11/25 03:33:31;;;;;;;13.98;8.43;;;5.90;99.90;;;;;;5052072;28;20048;-50
2021/11/25 03:35:59;;;;;;;11.73;8.45;;;5.90;99.90;;;;;;5053033;28;20025;-47
2021/11/25 03:38:25;;;;;;;12.15;8.23;;;5.90;99.90;;;;;;5053395;28;20028;-51
2021/11/25 03:40:51;;;;;;;16.42;9.55;;;5.90;99.90;;;;;;5052912;28;20104;-52
2021/11/25 03:43:17;;;;;;;13.98;9.27;;;5.90;99.90;;;;;;5053163;28;20568;-49
2021/11/25 03:45:42;;;;;;;12.88;7.82;;;5.90;99.90;;;;;;5052916;28;20104;-48
2021/11/25 03:48:08;;;;;;;15.45;8.90;;;5.90;99.90;;;;;;5052215;28;20377;-49
2021/11/25 03:50:34;;;;;;;12.73;8.35;;;5.90;99.90;;;;;;5052848;28;20033;-46
2021/11/25 03:53:00;;;;;;;13.75;8.45;;;5.90;99.90;;;;;;5052798;28;20029;-48
2021/11/25 03:55:26;;;;;;;14.10;8.48;;;5.80;99.90;;;;;;5052846;28;20017;-48
2021/11/25 03:57:52;;;;;;;15.85;8.32;;;5.80;99.90;;;;;;5052773;28;20488;-49
2021/11/25 04:00:20;;;;;;;16.48;9.48;;;5.90;99.90;;;;;;5052907;28;20032;-48
2021/11/25 04:02:47;;;;;;;12.82;8.50;;;5.90;99.90;;;;;;5051824;28;20021;-47
2021/11/25 04:05:14;;;;;;;12.82;9.00;;;5.80;99.90;;;;;;5052504;28;20032;-47
2021/11/25 04:07:40;;;;;;;12.40;8.48;;;5.80;99.90;;;;;;5052877;28;20071;-46
2021/11/25 04:10:07;;;;;;;11.85;8.07;;;5.80;99.90;;;;;;5052489;28;20028;-52
2021/11/25 04:12:33;;;;;;;13.95;9.23;;;5.80;99.90;;;;;;5052704;28;20053;-46
2021/11/25 04:14:59;;;;;;;13.95;9.18;;;5.80;99.90;;;;;;5052466;28;20049;-47
2021/11/25 04:17:24;;;;;;;16.38;10.05;;;5.80;99.90;;;;;;5051818;28;20031;-48
2021/11/25 04:19:51;;;;;;;9.65;7.20;;;5.70;99.90;;;;;;5052438;28;20025;-49
2021/11/25 04:22:20;;;;;;;15.70;9.70;;;5.80;99.90;;;;;;5052682;28;20111;-47
2021/11/25 04:24:46;;;;;;;14.50;9.68;;;5.80;99.90;;;;;;5052352;28;20028;-49
2021/11/25 04:27:11;;;;;;;12.20;8.90;;;5.80;99.90;;;;;;5051277;28;20594;-47
2021/11/25 04:29:40;;;;;;;14.80;9.70;;;5.70;99.90;;;;;;5052346;28;20029;-49
2021/11/25 04:37:34;;;;;;;13.73;8.90;;;5.70;99.90;;;;;;5052587;28;20071;-49
2021/11/25 04:39:59;;;;;;;13.07;9.43;;;5.70;99.90;;;;;;5052222;28;20029;-48
2021/11/25 04:42:25;;;;;;;12.73;8.73;;;5.70;99.90;;;;;;5052464;28;20035;-50
2021/11/25 04:44:50;;;;;;;17.80;9.90;;;5.70;99.90;;;;;;5052266;28;20032;-47
2021/11/25 04:47:16;;;;;;;16.63;10.13;;;5.70;99.90;;;;;;5051365;28;20025;-51
2021/11/25 04:49:42;;;;;;;15.02;10.10;;;5.70;99.90;;;;;;5052139;28;20021;-45
2021/11/25 04:52:07;;;;;;;11.73;8.23;;;5.70;99.90;;;;;;5052062;28;20025;-48
2021/11/25 04:54:33;;;;;;;13.25;8.80;;;5.60;99.90;;;;;;5052214;28;20017;-51
2021/11/25 04:56:58;;;;;;;13.50;9.60;;;5.60;99.90;;;;;;5052156;28;20021;-46
2021/11/25 04:59:24;;;;;;;14.27;9.48;;;5.60;99.90;;;;;;5052271;28;20376;-50
2021/11/25 05:01:49;;;;;;;14.75;9.35;;;5.60;99.90;;;;;;5052103;28;20029;-50
2021/11/25 05:04:15;;;;;;;18.98;11.27;;;5.60;99.90;;;;;;5051028;28;20036;-48
2021/11/25 05:06:40;;;;;;;16.13;10.30;;;5.60;99.90;;;;;;5051858;28;20037;-52
2021/11/25 05:09:06;;;;;;;15.65;10.38;;;5.60;99.90;;;;;;5066210;28;20164;-46
2021/11/25 05:11:32;;;;;;;12.75;8.05;;;5.60;99.90;;;;;;5071982;28;20142;-49
2021/11/25 05:13:57;;;;;;;15.85;10.23;;;5.60;99.90;;;;;;5071739;28;20056;-49
2021/11/25 05:16:23;;;;;;;12.75;9.18;;;5.60;99.90;;;;;;5071897;28;20035;-47
2021/11/25 05:18:48;;;;;;;15.48;10.43;;;5.60;99.90;;;;;;5071070;28;20029;-50
2021/11/25 05:21:14;;;;;;;14.23;9.55;;;5.50;99.90;;;;;;5071420;28;20028;-46
2021/11/25 05:23:39;;;;;;;15.68;10.90;;;5.60;99.90;;;;;;5071843;28;20021;-48
2021/11/25 05:26:05;;;;;;;16.55;10.65;;;5.50;99.90;;;;;;5071558;28;20035;-50
2021/11/25 05:28:30;;;;;;;12.82;9.15;;;5.60;99.90;;;;;;5071921;28;20066;-49
2021/11/25 05:30:57;;;;;;;16.33;11.05;;;5.60;99.90;;;;;;5071743;28;20064;-50
2021/11/25 05:33:23;;;;;;;17.85;10.38;;;5.60;99.90;;;;;;5070553;28;20423;-46
2021/11/25 05:35:48;;;;;;;19.02;12.15;;;5.60;99.90;;;;;;5071477;28;20025;-47
2021/11/25 05:38:14;;;;;;;18.10;11.45;;;5.60;99.90;;;;;;5071594;28;20028;-44
2021/11/25 05:40:40;;;;;;;16.55;10.18;;;5.60;99.90;;;;;;5073598;28;20021;-45
2021/11/25 05:43:06;;;;;;;18.63;11.60;;;5.60;99.90;;;;;;5073937;28;20025;-45
2021/11/25 05:45:32;;;;;;;15.88;10.80;;;5.50;99.90;;;;;;5075254;28;20332;-49
2021/11/25 05:47:58;;;;;;;17.17;10.98;;;5.50;99.90;;;;;;5074414;28;20484;-48
2021/11/25 05:50:25;;;;;;;15.70;11.18;;;5.50;99.90;;;;;;5075193;28;20083;-49
2021/11/25 05:52:53;;;;;;;18.83;11.77;;;5.50;99.90;;;;;;5075066;28;20039;-51
2021/11/25 05:55:19;;;;;;;15.13;10.52;;;5.50;99.90;;;;;;5064578;28;20033;-50
2021/11/25 05:57:45;;;;;;;19.17;12.30;;;5.50;99.90;;;;;;5054851;28;20387;-50
2021/11/25 06:00:13;;;;;;;19.60;12.75;;;5.50;99.90;;;;;;5054914;28;20099;-52
2021/11/25 06:02:45;;;;;;;19.73;11.73;;;5.50;99.90;;;;;;5054040;28;20044;-47
2021/11/25 06:05:13;;;;;;;17.52;11.52;;;5.50;99.90;;;;;;5054810;28;20032;-51
2021/11/25 06:07:45;;;;;;;24.60;14.88;;;5.50;99.90;;;;;;5061520;28;20035;-51
2021/11/25 06:10:12;;;;;;;18.67;12.27;;;5.50;99.90;;;;;;5074357;28;20059;-50
2021/11/25 06:12:38;;;;;;;22.60;13.65;;;5.60;99.90;;;;;;5055759;28;20026;-48
2021/11/25 06:15:05;;;;;;;19.55;12.90;;;5.60;99.90;;;;;;5035013;28;20036;-51
2021/11/25 06:17:30;;;;;;;23.02;14.43;;;5.50;99.90;;;;;;5033792;28;20087;-49
2021/11/25 06:19:56;;;;;;;27.25;15.13;;;5.50;99.90;;;;;;5034750;28;20025;-48
2021/11/25 06:22:23;;;;;;;23.58;15.57;;;5.50;99.90;;;;;;5034686;28;20496;-47
2021/11/25 06:24:49;;;;;;;24.52;14.80;;;5.50;99.90;;;;;;5034746;28;20065;-47
2021/11/25 06:27:15;;;;;;;20.77;13.23;;;5.50;99.90;;;;;;5034744;28;20026;-48
2021/11/25 06:29:41;;;;;;;21.73;15.07;;;5.50;99.90;;;;;;5034907;28;20423;-49
2021/11/25 06:32:07;;;;;;;25.30;14.57;;;5.50;99.90;;;;;;5033483;28;20054;-46
2021/11/25 06:34:32;;;;;;;24.67;15.38;;;5.50;99.90;;;;;;5034776;28;20026;-52
2021/11/25 06:36:58;;;;;;;24.33;14.55;;;5.50;99.90;;;;;;5034600;28;20079;-47
2021/11/25 06:39:23;;;;;;;21.45;13.32;;;5.50;99.90;;;;;;5034552;28;20028;-49
2021/11/25 06:41:49;;;;;;;23.65;13.82;;;5.50;99.90;;;;;;5034593;28;20033;-47
2021/11/25 06:44:14;;;;;;;26.27;15.77;;;5.60;99.90;;;;;;5034555;28;20029;-47
2021/11/25 06:46:40;;;;;;;21.30;14.50;;;5.60;99.90;;;;;;5034344;28;20037;-46
2021/11/25 06:49:05;;;;;;;22.98;14.60;;;5.60;99.90;;;;;;5033481;28;20069;-47
2021/11/25 06:51:32;;;;;;;26.30;16.17;;;5.50;99.90;;;;;;5034378;28;20025;-51
2021/11/25 06:53:57;;;;;;;28.23;16.17;;;5.60;99.90;;;;;;5034254;28;20033;-48
2021/11/25 06:56:23;;;;;;;25.35;14.45;;;5.60;99.90;;;;;;5034175;28;20026;-49
2021/11/25 06:58:50;;;;;;;24.65;15.15;;;5.60;99.90;;;;;;5034342;28;20477;-51
2021/11/25 07:01:16;;;;;;;22.58;13.40;;;5.60;99.90;;;;;;5034045;28;20014;-51
2021/11/25 07:03:41;;;;;;;23.30;14.52;;;5.60;99.90;;;;;;5046945;28;20074;-49
2021/11/25 07:06:07;;;;;;;26.27;13.98;;;5.60;99.90;;;;;;5053960;28;20033;-48
2021/11/25 07:08:32;;;;;;;21.40;14.55;;;5.60;99.90;;;;;;5053961;28;20047;-49
2021/11/25 07:10:59;;;;;;;20.63;13.45;;;5.60;99.90;;;;;;5053953;28;20032;-48
2021/11/25 07:13:27;;;;;;;22.77;13.80;;;5.60;99.90;;;;;;5053753;28;20064;-51
2021/11/25 07:15:54;;;;;;;25.15;14.65;;;5.60;99.90;;;;;;5053772;28;20029;-52
2021/11/25 07:18:19;;;;;;;24.52;16.35;;;5.60;99.90;;;;;;5052932;28;20044;-49
2021/11/25 07:20:45;;;;;;;27.05;16.20;;;5.60;99.90;;;;;;5053914;28;20472;-48
2021/11/25 07:23:11;;;;;;;27.70;16.42;;;5.60;99.90;;;;;;5053534;28;20048;-47
2021/11/25 07:25:36;;;;;;;23.95;14.73;;;5.50;99.90;;;;;;5054022;28;20052;-50
2021/11/25 07:28:02;;;;;;;22.65;13.32;;;5.60;99.90;;;;;;5053657;28;20062;-49
2021/11/25 07:30:28;;;;;;;23.83;15.45;;;5.60;99.90;;;;;;5053523;28;20021;-52
2021/11/25 07:32:54;;;;;;;21.38;13.20;;;5.60;99.90;;;;;;5052306;28;20044;-51
2021/11/25 07:35:20;;;;;;;22.00;13.75;;;5.50;99.90;;;;;;5053521;28;20094;-50
2021/11/25 07:37:52;;;;;;;21.52;12.93;;;5.60;99.90;;;;;;5053514;28;20029;-47
2021/11/25 07:40:19;;;;;;;20.80;12.13;;;5.60;99.90;;;;;;5053351;28;20052;-51
2021/11/25 07:42:45;;;;;;;21.35;13.45;;;5.60;99.90;;;;;;5053250;28;20407;-49
2021/11/25 07:45:11;;;;;;;23.50;15.55;;;5.60;99.90;;;;;;5053265;28;20037;-53
2021/11/25 07:47:37;;;;;;;26.92;16.30;;;5.60;99.90;;;;;;5052356;28;20151;-47
2021/11/25 07:50:12;;;;;;;21.08;13.63;;;5.60;99.90;;;;;;5053328;28;20032;-52
2021/11/25 07:52:39;;;;;;;23.05;15.13;;;5.60;99.90;;;;;;5053090;28;20088;-49
2021/11/25 07:55:06;;;;;;;26.85;13.88;;;5.50;99.90;;;;;;5053141;28;20433;-47
2021/11/25 07:57:32;;;;;;;22.63;14.57;;;5.50;99.90;;;;;;5052910;28;20376;-54
2021/11/25 07:59:57;;;;;;;24.98;14.70;;;5.50;99.90;;;;;;5053182;28;20032;-48
2021/11/25 08:02:23;;;;;;;26.63;14.00;;;5.50;99.90;;;;;;5051583;28;20033;-49
2021/11/25 08:04:49;;;;;;;22.90;14.40;;;5.60;99.90;;;;;;5053057;28;20025;-47
2021/11/25 08:07:15;;;;;;;23.42;14.40;;;5.60;99.90;;;;;;5052865;28;20020;-51
2021/11/25 08:09:41;;;;;;;28.42;15.90;;;5.60;99.90;;;;;;5052825;28;20116;-47
2021/11/25 08:12:07;;;;;;;23.00;14.85;;;5.60;99.90;;;;;;5052607;28;20464;-47
2021/11/25 08:14:33;;;;;;;24.10;14.35;;;5.60;99.90;;;;;;5052756;28;20044;-46
2021/11/25 08:16:59;;;;;;;25.52;14.38;;;5.70;99.90;;;;;;5051711;28;20057;-49
2021/11/25 08:19:28;;;;;;;21.80;13.88;;;5.70;99.90;;;;;;5052704;28;20056;-52
2021/11/25 08:21:55;;;;;;;23.63;13.68;;;5.70;99.90;;;;;;5052627;28;20021;-46
2021/11/25 08:24:20;;;;;;;23.77;14.27;;;5.80;99.90;;;;;;5052685;28;20025;-47
2021/11/25 08:26:46;;;;;;;24.77;15.95;;;5.80;99.90;;;;;;5052377;28;20079;-46
2021/11/25 08:29:12;;;;;;;25.65;15.50;;;5.80;99.90;;;;;;5052659;28;20484;-46
2021/11/25 08:31:37;;;;;;;23.92;14.95;;;5.90;99.90;;;;;;5052486;28;20075;-49
2021/11/25 08:34:04;;;;;;;24.00;15.85;;;5.90;99.90;;;;;;5051443;28;20029;-47
2021/11/25 08:36:30;;;;;;;26.83;17.27;;;6.00;99.90;;;;;;5052596;28;20021;-49
2021/11/25 08:38:55;;;;;;;33.08;18.33;;;6.00;99.90;;;;;;5052560;28;20025;-49
2021/11/25 08:41:21;;;;;;;33.17;19.67;;;6.00;99.90;;;;;;5052404;28;20033;-48
2021/11/25 08:43:47;;;;;;;28.02;16.38;;;6.00;99.90;;;;;;5052451;28;20035;-49
2021/11/25 08:46:12;;;;;;;29.80;17.23;;;6.10;99.90;;;;;;5052565;28;20455;-46
2021/11/25 08:48:38;;;;;;;27.17;16.67;;;6.20;99.90;;;;;;5051392;28;20029;-50
2021/11/25 08:51:04;;;;;;;29.58;16.98;;;6.20;99.90;;;;;;5052544;28;20167;-51
2021/11/25 08:53:31;;;;;;;27.55;17.08;;;6.30;99.90;;;;;;5050918;28;20040;-49
2021/11/25 08:55:57;;;;;;;24.40;15.80;;;6.20;99.90;;;;;;5052256;28;20075;-52
2021/11/25 08:58:22;;;;;;;31.40;18.48;;;6.30;99.90;;;;;;5052272;28;20055;-52
2021/11/25 09:00:48;;;;;;;25.73;16.42;;;6.30;99.90;;;;;;5052468;28;20372;-48
2021/11/25 09:03:14;;;;;;;32.63;17.55;;;6.30;99.90;;;;;;5051198;28;20029;-48
2021/11/25 09:05:40;;;;;;;27.77;16.48;;;6.40;99.90;;;;;;5052405;28;20607;-51
2021/11/25 09:08:05;;;;;;;31.38;17.13;;;6.40;99.90;;;;;;5052319;28;20075;-47
2021/11/25 09:10:33;;;;;;;27.25;15.88;;;6.50;99.90;;;;;;5052084;28;20432;-52
2021/11/25 09:13:01;;;;;;;30.48;16.98;;;6.50;99.90;;;;;;5052113;28;20109;-48
2021/11/25 09:15:27;;;;;;;25.13;16.08;;;6.60;99.90;;;;;;5053881;28;20017;-45
2021/11/25 09:17:52;;;;;;;25.55;16.02;;;6.60;99.90;;;;;;5055121;28;20021;-49
2021/11/25 09:20:18;;;;;;;28.13;18.20;;;6.70;99.90;;;;;;5056156;28;20276;-51
2021/11/25 09:22:43;;;;;;;25.48;16.42;;;6.70;99.90;;;;;;5055858;28;20499;-49
2021/11/25 09:25:09;;;;;;;25.98;17.42;;;6.80;99.90;;;;;;5055898;28;20037;-49
2021/11/25 09:27:35;;;;;;;31.08;18.10;;;6.80;99.90;;;;;;5055722;28;20104;-48
2021/11/25 09:30:00;;;;;;;29.33;18.90;;;6.80;99.90;;;;;;5055673;28;20110;-47
2021/11/25 09:32:27;;;;;;;26.00;17.35;;;6.80;99.90;;;;;;5054597;28;20088;-49
2021/11/25 09:34:53;;;;;;;27.30;18.40;;;6.80;99.90;;;;;;5055876;28;20384;-54
2021/11/25 09:37:19;;;;;;;31.27;19.65;;;6.80;99.90;;;;;;5055733;28;20036;-52
2021/11/25 09:39:45;;;;;;;29.85;18.65;;;6.80;99.90;;;;;;5055542;28;20025;-49
2021/11/25 09:42:10;;;;;;;25.35;16.52;;;6.80;99.90;;;;;;5055644;28;20044;-50
2021/11/25 09:44:36;;;;;;;29.85;18.67;;;6.80;99.90;;;;;;5055422;28;20103;-48
2021/11/25 09:47:03;;;;;;;28.35;17.48;;;6.80;99.90;;;;;;5054649;28;20021;-52
2021/11/25 09:49:29;;;;;;;27.90;17.33;;;6.90;99.90;;;;;;5055366;28;20017;-51
2021/11/25 09:51:55;;;;;;;23.27;16.10;;;6.90;99.90;;;;;;5055524;28;20028;-50
2021/11/25 09:54:21;;;;;;;27.55;18.42;;;6.90;99.90;;;;;;5055201;28;20033;-50
2021/11/25 09:56:48;;;;;;;25.27;16.48;;;6.90;99.90;;;;;;5055366;28;20562;-48
2021/11/25 09:59:14;;;;;;;28.30;16.92;;;6.90;99.90;;;;;;5055123;28;20035;-47
2021/11/25 10:01:40;;;;;;;25.58;17.10;;;7.00;99.90;;;;;;5055257;28;20444;-51
2021/11/25 10:04:05;;;;;;;30.63;20.10;;;6.90;99.90;;;;;;5054180;28;20564;-51
2021/11/25 10:06:36;;;;;;;27.27;17.63;;;7.00;99.90;;;;;;5055207;28;20477;-49
2021/11/25 10:09:03;;;;;;;24.27;16.08;;;7.00;99.90;;;;;;5055049;28;20361;-51
2021/11/25 10:11:32;;;;;;;26.25;16.35;;;7.00;99.90;;;;;;5055121;28;20029;-52
2021/11/25 10:14:06;;;;;;;21.13;15.35;;;7.00;99.90;;;;;;5054803;28;20025;-51
2021/11/25 10:16:42;;;;;;;22.23;14.70;;;7.10;99.90;;;;;;5055039;28;20032;-53
2021/11/25 10:19:12;;;;;;;;;;;7.10;99.90;;;;;;5054486;28;20468;-49
2021/11/25 10:21:44;;;;;;;18.75;12.60;;;7.10;98.50;;;;;;5054789;28;19943;-53
2021/11/25 10:24:10;;;;;;;20.90;14.63;;;7.10;99.90;;;;;;5054838;28;20393;-50
2021/11/25 10:26:35;;;;;;;25.30;16.63;;;7.10;97.30;;;;;;5054487;28;20474;-47
2021/11/25 10:29:07;;;;;;;20.55;13.57;;;7.10;97.70;;;;;;5054638;28;20060;-53
2021/11/25 10:31:35;;;;;;;21.95;13.98;;;7.10;99.90;;;;;;5054783;28;20025;-49
2021/11/25 10:34:10;;;;;;;19.33;13.15;;;7.10;99.90;;;;;;5053504;28;20484;-47
2021/11/25 10:36:55;;;;;;;19.60;13.00;;;7.10;99.90;;;;;;5054629;28;20024;-48
2021/11/25 10:41:58;;;;;;;;;;;7.10;98.70;;;;;;5055224;28;20103;-49
2021/11/25 10:44:38;;;;;;;19.83;12.63;;;7.10;96.10;;;;;;5054223;28;20260;-49
2021/11/25 10:47:16;;;;;;;19.15;11.77;;;7.10;99.50;;;;;;5053587;28;20029;-48
2021/11/25 10:49:50;;;;;;;19.90;13.15;;;7.20;99.50;;;;;;5054342;28;20032;-53
2021/11/25 10:52:34;;;;;;;18.95;13.20;;;7.20;99.40;;;;;;5054329;28;20025;-49
2021/11/25 10:55:04;;;;;;;16.90;12.38;;;7.20;98.90;;;;;;5054031;28;20028;-49
2021/11/25 10:57:47;;;;;;;18.48;12.27;;;7.20;98.50;;;;;;5054274;28;20435;-50
2021/11/25 11:00:23;;;;;;;16.38;10.68;;;7.20;99.00;;;;;;5053983;28;20495;-47
2021/11/25 11:02:49;;;;;;;15.40;10.68;;;7.20;99.90;;;;;;5053102;28;20033;-49
2021/11/25 11:05:21;;;;;;;16.90;11.35;;;7.20;99.60;;;;;;5053912;28;20468;-47
2021/11/25 11:07:48;;;;;;;15.82;10.60;;;7.20;99.90;;;;;;5050999;28;20036;-50
2021/11/25 11:10:27;;;;;;;13.05;9.30;;;7.20;99.70;;;;;;5053623;28;20036;-45
2021/11/25 11:13:00;;;;;;;16.70;10.70;;;7.20;98.30;;;;;;5053672;28;20037;-50
2021/11/25 11:15:34;;;;;;;12.60;8.82;;;7.10;98.30;;;;;;5053596;28;20040;-49
2021/11/25 11:18:42;;;;;;;14.15;9.65;;;7.10;99.00;;;;;;5052647;28;20487;-48
2021/11/25 11:20:49;;;;;;;11.65;8.60;;;7.00;99.70;;;;;;5053466;28;20036;-51
2021/11/25 11:23:17;;;;;;;15.20;10.73;;;7.00;99.40;;;;;;5053703;28;20056;-51
2021/11/25 11:25:46;;;;;;;18.30;10.95;;;7.00;99.40;;;;;;5053413;28;20027;-47
2021/11/25 11:28:13;;;;;;;15.43;10.20;;;6.90;99.90;;;;;;5053349;28;20423;-51
2021/11/25 11:30:40;;;;;;;15.15;9.88;;;6.90;99.90;;;;;;5053241;28;20025;-49
2021/11/25 11:33:09;;;;;;;15.77;9.98;;;6.80;99.90;;;;;;5052186;28;20049;-45
2021/11/25 11:35:35;;;;;;;18.98;11.40;;;6.80;99.90;;;;;;5053277;28;20029;-49
2021/11/25 11:38:02;;;;;;;16.80;10.98;;;6.80;99.90;;;;;;5052680;28;20017;-50
2021/11/25 11:40:30;;;;;;;16.67;10.63;;;6.70;99.90;;;;;;5053395;28;20067;-48
2021/11/25 11:42:59;;;;;;;20.42;12.57;;;6.70;99.90;;;;;;5053221;28;20028;-49
2021/11/25 11:45:27;;;;;;;18.50;12.82;;;6.70;99.90;;;;;;5051858;28;20029;-48
2021/11/25 11:47:56;;;;;;;18.42;12.68;;;6.60;99.90;;;;;;5052074;28;20056;-48
2021/11/25 11:50:34;;;;;;;19.48;12.88;;;6.60;99.90;;;;;;5053128;28;20039;-51
2021/11/25 11:53:03;;;;;;;20.13;12.60;;;6.50;99.90;;;;;;5053083;28;20100;-50
2021/11/25 11:55:43;;;;;;;18.00;11.30;;;6.60;99.90;;;;;;5052913;28;20032;-47
2021/11/25 11:58:23;;;;;;;22.63;13.95;;;6.50;99.90;;;;;;5053074;28;20017;-49
2021/11/25 12:00:51;;;;;;;18.90;12.65;;;6.50;99.90;;;;;;5052795;28;20052;-46
2021/11/25 12:03:51;;;;;;;23.73;14.23;;;6.50;99.90;;;;;;5051961;28;20100;-53
2021/11/25 12:06:40;;;;;;;21.10;12.48;;;6.50;99.90;;;;;;5030407;28;20037;-50
2021/11/25 12:09:14;;;;;;;26.98;16.02;;;6.40;99.90;;;;;;5052854;28;20099;-51
2021/11/25 12:11:50;;;;;;;28.15;16.88;;;6.30;99.90;;;;;;5052712;28;20033;-49
2021/11/25 12:14:25;;;;;;;19.63;13.80;;;6.30;99.90;;;;;;5052613;28;20020;-49
2021/11/25 12:16:58;;;;;;;26.23;15.82;;;6.30;99.90;;;;;;5051921;28;20472;-53
2021/11/25 12:19:26;;;;;;;30.80;18.48;;;6.20;99.90;;;;;;5052639;28;20025;-49
2021/11/25 12:21:54;;;;;;;26.73;16.83;;;6.20;99.90;;;;;;5051285;28;20027;-49
2021/11/25 12:24:43;;;;;;;30.10;18.77;;;6.10;99.90;;;;;;5052798;28;20052;-52
2021/11/25 12:27:36;;;;;;;28.05;16.42;;;6.10;99.90;;;;;;5052315;28;20373;-49
2021/11/25 12:30:05;;;;;;;29.88;16.95;;;6.00;99.90;;;;;;5047838;28;20033;-50
2021/11/25 12:35:35;;;;;;;33.92;18.83;;;6.00;99.90;;;;;;5052257;28;20112;-51
2021/11/25 12:38:11;;;;;;;33.03;17.83;;;5.90;99.90;;;;;;5052270;28;20384;-48
2021/11/25 12:40:45;;;;;;;27.15;16.90;;;5.90;99.90;;;;;;5052428;28;20037;-48
2021/11/25 12:43:19;;;;;;;27.02;14.88;;;5.90;99.90;;;;;;5052621;28;20029;-52
2021/11/25 12:45:49;;;;;;;30.50;16.90;;;5.90;99.90;;;;;;5052133;28;20154;-49
2021/11/25 12:48:19;;;;;;;30.08;17.77;;;5.90;99.90;;;;;;5051220;28;20048;-51
2021/11/25 12:50:55;;;;;;;26.85;16.08;;;5.90;99.90;;;;;;5053861;28;20068;-47
2021/11/25 12:53:30;;;;;;;28.02;16.08;;;5.90;99.90;;;;;;5072460;28;20116;-49
2021/11/25 12:56:16;;;;;;;26.38;16.15;;;5.90;99.90;;;;;;5075836;28;20035;-47